Terminal Aerodrome Forecast
Issued by NWS Pocatello, ID

Home | Current Version | Previous Version | Text Only | Print | Product List | Glossary On
Versions: 1 2 3 4 5 6 7 8 9 10 11 12 13 14
000
FTUS45 KPIH 302300
TAFBYI
TAF
KBYI 302321Z 3100/3124 27011KT P6SM SCT100 OVC200
     FM310300 24011KT P6SM BKN070
     FM310900 25011KT P6SM SCT050 BKN100
     FM311700 26015G25KT P6SM SCT150=

USA.gov is the U.S. government's official web portal to all federal, state and local government web resources and services.